createdAt,value
2023-04-18T00:01:27.079Z,13.50
2023-04-18T00:03:53.713Z,13.85
2023-04-18T00:06:22.158Z,14.38
2023-04-18T00:08:48.557Z,12.20
2023-04-18T00:11:14.982Z,15.93
2023-04-18T00:13:41.449Z,17.00
2023-04-18T00:16:08.583Z,14.18
2023-04-18T00:18:36.842Z,14.00
2023-04-18T00:21:04.302Z,15.15
2023-04-18T00:23:31.074Z,14.70
2023-04-18T00:25:57.498Z,15.17
2023-04-18T00:28:23.858Z,13.85
2023-04-18T00:30:50.382Z,14.85
2023-04-18T00:33:16.903Z,13.70
2023-04-18T00:35:43.310Z,14.02
2023-04-18T00:38:09.755Z,13.93
2023-04-18T00:40:36.561Z,13.40
2023-04-18T00:43:03.269Z,15.50
2023-04-18T00:45:29.755Z,15.32
2023-04-18T00:47:56.472Z,14.57
2023-04-18T00:50:24.230Z,13.87
2023-04-18T00:52:51.905Z,14.40
2023-04-18T00:55:18.703Z,17.98
2023-04-18T00:57:45.842Z,15.25
2023-04-18T01:00:12.817Z,12.98
2023-04-18T01:02:40.518Z,14.63
2023-04-18T01:05:07.942Z,14.10
2023-04-18T01:07:37.274Z,12.60
2023-04-18T01:10:04.273Z,13.80
2023-04-18T01:12:30.693Z,15.35
2023-04-18T01:14:57.261Z,14.27
2023-04-18T01:17:23.692Z,14.05
2023-04-18T01:19:50.950Z,15.48
2023-04-18T01:22:18.833Z,14.20
2023-04-18T01:24:45.490Z,15.48
2023-04-18T01:27:13.484Z,16.37
2023-04-18T01:29:40.184Z,19.67
2023-04-18T01:32:06.735Z,14.10
2023-04-18T01:34:33.106Z,11.75
2023-04-18T01:36:59.579Z,14.88
2023-04-18T01:39:26.024Z,12.83
2023-04-18T01:41:52.495Z,14.38
2023-04-18T01:44:18.862Z,14.25
2023-04-18T01:46:45.414Z,13.50
2023-04-18T01:49:11.846Z,15.23
2023-04-18T01:51:42.087Z,13.37
2023-04-18T01:54:08.468Z,13.38
2023-04-18T01:56:34.855Z,15.30
2023-04-18T01:59:01.209Z,14.48
2023-04-18T02:01:27.591Z,15.23
2023-04-18T02:03:54.295Z,13.13
2023-04-18T02:06:20.864Z,14.65
2023-04-18T02:08:47.221Z,14.70
2023-04-18T02:11:13.575Z,14.65
2023-04-18T02:13:39.939Z,16.65
2023-04-18T02:16:11.171Z,14.50
2023-04-18T02:18:40.013Z,14.90
2023-04-18T02:21:06.740Z,15.00
2023-04-18T02:23:33.075Z,13.23
2023-04-18T02:25:59.482Z,13.27
2023-04-18T02:28:25.840Z,16.97
2023-04-18T02:30:52.219Z,15.93
2023-04-18T02:33:18.575Z,15.02
2023-04-18T02:35:44.992Z,18.08
2023-04-18T02:38:11.347Z,16.65
2023-04-18T02:40:37.717Z,15.90
2023-04-18T02:43:04.138Z,15.27
2023-04-18T02:45:30.542Z,16.70
2023-04-18T02:47:56.972Z,15.73
2023-04-18T02:50:24.612Z,14.60
2023-04-18T02:52:51.395Z,16.50
2023-04-18T02:55:17.847Z,12.88
2023-04-18T02:57:44.262Z,15.00
2023-04-18T03:00:11.444Z,14.88
2023-04-18T03:02:37.845Z,15.90
2023-04-18T03:05:05.266Z,15.90
2023-04-18T03:07:31.662Z,15.73
2023-04-18T03:09:58.024Z,14.93
2023-04-18T03:12:24.488Z,13.40
2023-04-18T03:14:50.885Z,15.13
2023-04-18T03:17:17.336Z,15.63
2023-04-18T03:19:44.882Z,16.13
2023-04-18T03:22:11.281Z,14.73
2023-04-18T03:24:37.659Z,18.48
2023-04-18T03:27:04.047Z,15.20
2023-04-18T03:29:31.075Z,14.07
2023-04-18T03:31:57.443Z,15.93
2023-04-18T03:34:23.866Z,17.98
2023-04-18T03:36:50.294Z,18.27
2023-04-18T03:39:16.701Z,16.50
2023-04-18T03:41:43.062Z,16.53
2023-04-18T03:44:09.402Z,18.40
2023-04-18T03:46:35.903Z,16.25
2023-04-18T03:49:02.343Z,19.45
2023-04-18T03:51:33.379Z,16.95
2023-04-18T03:53:59.751Z,18.07
2023-04-18T03:56:26.213Z,19.05
2023-04-18T03:58:52.587Z,18.25
2023-04-18T04:01:18.966Z,17.65
2023-04-18T04:03:45.550Z,19.60
2023-04-18T04:06:12.106Z,16.63
2023-04-18T04:08:38.453Z,17.83
2023-04-18T04:11:04.891Z,18.23
2023-04-18T04:13:31.237Z,15.93
2023-04-18T04:15:57.630Z,16.83
2023-04-18T04:18:29.824Z,16.73
2023-04-18T04:20:57.195Z,15.90
2023-04-18T04:23:25.429Z,16.70
2023-04-18T04:25:55.745Z,15.65
2023-04-18T04:28:23.029Z,17.45
2023-04-18T04:30:50.822Z,16.60
2023-04-18T04:33:21.005Z,20.17
2023-04-18T04:35:47.719Z,22.30
2023-04-18T04:38:15.265Z,17.17
2023-04-18T04:40:42.418Z,20.33
2023-04-18T04:43:12.480Z,17.63
2023-04-18T04:45:42.224Z,21.08
2023-04-18T04:48:09.217Z,21.17
2023-04-18T04:50:40.223Z,20.00
2023-04-18T04:53:06.745Z,21.63
2023-04-18T04:55:33.931Z,22.93
2023-04-18T04:58:00.624Z,22.35
2023-04-18T05:00:26.999Z,18.63
2023-04-18T05:02:59.039Z,21.95
2023-04-18T05:05:25.470Z,22.40
2023-04-18T05:07:51.944Z,19.80
2023-04-18T05:10:18.305Z,22.55
2023-04-18T05:12:44.738Z,23.90
2023-04-18T05:15:11.283Z,23.88
2023-04-18T05:17:37.723Z,22.92
2023-04-18T05:20:05.356Z,18.87
2023-04-18T05:22:32.364Z,20.73
2023-04-18T05:24:58.801Z,21.25
2023-04-18T05:27:26.207Z,20.35
2023-04-18T05:29:52.690Z,20.88
2023-04-18T05:32:19.133Z,19.47
2023-04-18T05:34:45.921Z,18.90
2023-04-18T05:37:12.285Z,18.27
2023-04-18T05:39:38.970Z,19.20
2023-04-18T05:42:05.385Z,20.13
2023-04-18T05:44:31.856Z,17.53
2023-04-18T05:46:58.576Z,18.77
2023-04-18T05:49:24.910Z,18.10
2023-04-18T05:51:52.712Z,20.17
2023-04-18T05:54:21.405Z,16.02
2023-04-18T05:56:48.209Z,17.87
2023-04-18T05:59:14.604Z,16.08
2023-04-18T06:01:41.006Z,18.25
2023-04-18T06:04:08.550Z,15.40
2023-04-18T06:06:36.056Z,16.50
2023-04-18T06:09:02.537Z,18.60
2023-04-18T06:11:28.974Z,16.63
2023-04-18T06:13:56.022Z,16.65
2023-04-18T06:16:22.804Z,18.13
2023-04-18T06:18:49.226Z,17.02
2023-04-18T06:21:15.786Z,16.30
2023-04-18T06:23:42.136Z,17.40
2023-04-18T06:26:09.227Z,16.48
2023-04-18T06:28:35.831Z,19.45
2023-04-18T06:31:02.558Z,18.67
2023-04-18T06:33:28.938Z,17.13
2023-04-18T06:35:55.380Z,17.33
2023-04-18T06:38:21.810Z,18.08
2023-04-18T06:40:48.196Z,17.08
2023-04-18T06:43:14.613Z,16.95
2023-04-18T06:45:41.121Z,17.90
2023-04-18T06:48:09.014Z,16.38
2023-04-18T06:50:35.476Z,18.55
2023-04-18T06:53:02.209Z,16.35
2023-04-18T06:55:28.593Z,17.35
2023-04-18T06:57:55.041Z,16.23
2023-04-18T07:00:21.772Z,15.15
2023-04-18T07:02:48.657Z,16.02
2023-04-18T07:05:15.068Z,17.85
2023-04-18T07:07:41.418Z,16.55
2023-04-18T07:10:09.585Z,17.37
2023-04-18T07:12:35.973Z,15.80
2023-04-18T07:15:03.626Z,16.27
2023-04-18T07:17:30.097Z,14.50
2023-04-18T07:19:56.621Z,15.40
2023-04-18T07:22:23.021Z,15.00
2023-04-18T07:24:49.353Z,17.50
2023-04-18T07:27:15.968Z,15.95
2023-04-18T07:29:42.328Z,15.55
2023-04-18T07:32:08.774Z,16.50
2023-04-18T07:34:36.102Z,16.10
2023-04-18T07:37:02.483Z,16.65
2023-04-18T07:39:28.879Z,17.42
2023-04-18T07:41:55.358Z,15.30
2023-04-18T07:44:21.844Z,15.20
2023-04-18T07:46:48.344Z,15.23
2023-04-18T07:49:15.143Z,14.23
2023-04-18T07:51:41.734Z,16.60
2023-04-18T07:54:08.167Z,14.32
2023-04-18T07:56:34.574Z,16.23
2023-04-18T07:59:01.662Z,18.67
2023-04-18T08:01:28.090Z,16.73
2023-04-18T08:03:56.573Z,15.60
2023-04-18T08:06:23.250Z,14.75
2023-04-18T08:08:49.619Z,18.02
2023-04-18T08:11:15.950Z,15.77
2023-04-18T08:13:42.369Z,14.75
2023-04-18T08:16:09.039Z,14.90
2023-04-18T08:18:36.021Z,15.38
2023-04-18T08:21:02.501Z,16.05
2023-04-18T08:23:28.914Z,14.70
2023-04-18T08:25:55.300Z,14.90
2023-04-18T08:28:21.656Z,16.30
2023-04-18T08:30:49.094Z,14.15
2023-04-18T08:33:16.151Z,14.85
2023-04-18T08:35:42.986Z,15.50
2023-04-18T08:38:09.589Z,15.35
2023-04-18T08:40:37.457Z,14.02
2023-04-18T08:43:09.248Z,14.25
2023-04-18T08:45:36.787Z,14.15
2023-04-18T08:48:03.905Z,12.07
2023-04-18T08:50:30.659Z,14.50
2023-04-18T08:52:59.609Z,14.68
2023-04-18T08:55:26.008Z,14.20
2023-04-18T08:57:55.178Z,14.57
2023-04-18T09:00:22.670Z,14.83
2023-04-18T09:02:49.439Z,13.00
2023-04-18T09:05:21.187Z,12.32
2023-04-18T09:07:49.594Z,14.57
2023-04-18T09:10:30.926Z,12.57
2023-04-18T09:12:59.081Z,14.47
2023-04-18T09:15:27.233Z,13.35
2023-04-18T09:17:56.373Z,12.73
2023-04-18T09:20:34.556Z,11.20
2023-04-18T09:23:03.854Z,13.95
2023-04-18T09:25:40.129Z,11.47
2023-04-18T09:28:24.766Z,12.88
2023-04-18T09:30:52.572Z,12.18
2023-04-18T09:33:28.217Z,11.93
2023-04-18T09:35:55.725Z,12.07
2023-04-18T09:38:39.037Z,11.93
2023-04-18T09:41:10.085Z,10.77
2023-04-18T09:43:36.565Z,13.02
2023-04-18T09:46:04.625Z,10.80
2023-04-18T09:48:31.262Z,11.82
2023-04-18T09:51:00.061Z,10.23
2023-04-18T09:53:27.141Z,10.57
2023-04-18T09:55:56.175Z,11.63
2023-04-18T09:58:26.234Z,10.50
2023-04-18T10:00:54.237Z,9.65
2023-04-18T10:03:24.999Z,9.50
2023-04-18T10:05:52.077Z,10.30
2023-04-18T10:08:18.527Z,9.50
2023-04-18T10:10:44.950Z,10.48
2023-04-18T10:13:13.753Z,10.02
2023-04-18T10:15:41.748Z,10.20
2023-04-18T10:18:11.287Z,10.55
2023-04-18T10:20:41.151Z,10.68
2023-04-18T10:23:34.678Z,8.93
2023-04-18T10:26:02.571Z,9.00
2023-04-18T10:28:51.223Z,10.10
2023-04-18T10:31:17.714Z,10.05
2023-04-18T10:34:03.350Z,10.43
2023-04-18T10:36:32.369Z,9.63
2023-04-18T10:39:20.851Z,10.20
2023-04-18T10:41:51.422Z,10.67
2023-04-18T10:44:23.062Z,11.05
2023-04-18T10:46:52.960Z,14.48
2023-04-18T10:49:30.327Z,10.20
2023-04-18T10:52:00.846Z,10.35
2023-04-18T10:54:55.166Z,10.93
2023-04-18T10:57:22.643Z,12.65
2023-04-18T10:59:51.365Z,12.40
2023-04-18T11:02:28.736Z,10.88
2023-04-18T11:05:01.480Z,11.23
2023-04-18T11:07:34.370Z,11.07
2023-04-18T11:10:01.856Z,9.70
2023-04-18T11:12:36.682Z,10.15
2023-04-18T11:15:10.522Z,12.20
2023-04-18T11:17:39.978Z,11.07
2023-04-18T11:20:12.758Z,10.50
2023-04-18T11:22:46.988Z,9.63
2023-04-18T11:25:13.910Z,10.48
2023-04-18T11:27:44.845Z,10.02
2023-04-18T11:30:13.069Z,11.18
2023-04-18T11:32:39.661Z,10.50
2023-04-18T11:35:08.713Z,10.75
2023-04-18T11:37:37.528Z,9.35
2023-04-18T11:40:09.879Z,9.48
2023-04-18T11:42:38.755Z,10.18
2023-04-18T11:45:15.467Z,10.93
2023-04-18T11:47:43.364Z,9.23
2023-04-18T11:50:12.024Z,8.55
2023-04-18T11:52:40.212Z,8.75
2023-04-18T11:55:18.335Z,9.35
2023-04-18T11:57:52.905Z,9.37
2023-04-18T12:00:41.805Z,7.13
2023-04-18T12:03:16.793Z,8.57
2023-04-18T12:05:43.748Z,8.57
2023-04-18T12:08:19.370Z,9.15
2023-04-18T12:10:47.326Z,9.17
2023-04-18T12:13:13.906Z,9.52
2023-04-18T12:15:43.430Z,9.57
2023-04-18T12:18:12.039Z,8.10
2023-04-18T12:20:50.270Z,9.20
2023-04-18T12:23:40.364Z,7.83
2023-04-18T12:26:07.544Z,6.97
2023-04-18T12:28:35.154Z,7.60
2023-04-18T12:31:02.324Z,7.65
2023-04-18T12:33:30.516Z,7.43
2023-04-18T12:35:57.315Z,8.27
2023-04-18T12:38:23.936Z,9.32
2023-04-18T12:40:51.585Z,8.93
2023-04-18T12:43:18.732Z,7.88
2023-04-18T12:45:46.647Z,6.78
2023-04-18T12:48:13.520Z,7.87
2023-04-18T12:50:39.876Z,8.23
2023-04-18T12:53:06.635Z,6.60
2023-04-18T12:55:33.177Z,6.15
2023-04-18T12:57:59.613Z,8.60
2023-04-18T13:00:28.447Z,8.37
2023-04-18T13:02:55.039Z,9.27
2023-04-18T13:05:23.338Z,7.43
2023-04-18T13:07:54.092Z,8.55
2023-04-18T13:10:25.376Z,6.60
2023-04-18T13:12:52.490Z,7.30
2023-04-18T13:15:22.633Z,6.07
2023-04-18T13:17:49.236Z,6.88
2023-04-18T13:20:16.399Z,8.82
2023-04-18T13:22:43.244Z,6.78
2023-04-18T13:25:13.239Z,6.43
2023-04-18T13:27:41.960Z,6.25
2023-04-18T13:30:10.330Z,7.03
2023-04-18T13:32:37.611Z,8.55
2023-04-18T13:35:04.453Z,7.00
2023-04-18T13:37:31.157Z,6.93
2023-04-18T13:39:57.608Z,7.07
2023-04-18T13:42:23.993Z,7.20
2023-04-18T13:44:50.426Z,6.93
2023-04-18T13:47:16.774Z,7.30
2023-04-18T13:49:43.173Z,6.47
2023-04-18T13:52:09.532Z,7.22
2023-04-18T13:54:37.284Z,7.30
2023-04-18T13:57:03.936Z,7.43
2023-04-18T13:59:31.789Z,8.18
2023-04-18T14:01:58.374Z,7.27
2023-04-18T14:04:25.203Z,8.35
2023-04-18T14:06:51.746Z,8.35
2023-04-18T14:09:18.212Z,7.43
2023-04-18T14:11:44.996Z,7.68
2023-04-18T14:14:11.363Z,7.67
2023-04-18T14:16:37.722Z,7.47
2023-04-18T14:19:04.177Z,8.57
2023-04-18T14:21:31.175Z,8.48
2023-04-18T14:23:57.666Z,7.45
2023-04-18T14:26:24.153Z,8.90
2023-04-18T14:28:50.680Z,9.02
2023-04-18T14:31:17.157Z,8.35
2023-04-18T14:33:43.550Z,9.38
2023-04-18T14:36:10.217Z,8.27
2023-04-18T14:38:36.618Z,8.87
2023-04-18T14:41:05.927Z,9.10
2023-04-18T14:43:32.474Z,10.57
2023-04-18T14:45:59.722Z,9.27
2023-04-18T14:48:26.894Z,9.13
2023-04-18T14:51:00.229Z,10.30
2023-04-18T14:53:27.054Z,9.77
2023-04-18T14:55:53.579Z,10.93
2023-04-18T14:58:20.488Z,10.25
2023-04-18T15:00:47.104Z,11.07
2023-04-18T15:03:13.661Z,10.23
2023-04-18T15:05:42.915Z,11.55
2023-04-18T15:08:10.936Z,11.25
2023-04-18T15:10:38.160Z,11.18
2023-04-18T15:13:04.547Z,12.95
2023-04-18T15:15:31.265Z,12.17
2023-04-18T15:17:57.788Z,10.80
2023-04-18T15:20:24.257Z,12.95
2023-04-18T15:22:50.631Z,12.38
2023-04-18T15:25:17.566Z,11.55
2023-04-18T15:27:43.915Z,11.43
2023-04-18T15:30:13.461Z,11.68
2023-04-18T15:32:42.824Z,10.40
2023-04-18T15:35:10.261Z,11.70
2023-04-18T15:37:37.159Z,10.68
2023-04-18T15:40:06.810Z,12.87
2023-04-18T15:42:33.678Z,13.23
2023-04-18T15:45:01.081Z,12.52
2023-04-18T15:47:27.490Z,12.63
2023-04-18T15:49:53.907Z,11.98
2023-04-18T15:52:20.303Z,14.17
2023-04-18T15:54:46.662Z,12.43
2023-04-18T15:57:13.031Z,13.88
2023-04-18T15:59:39.462Z,13.25
2023-04-18T16:02:07.253Z,13.57
2023-04-18T16:04:33.810Z,13.73
2023-04-18T16:07:00.572Z,13.25
2023-04-18T16:09:27.046Z,13.73
2023-04-18T16:11:53.473Z,12.65
2023-04-18T16:14:19.842Z,13.23
2023-04-18T16:16:46.232Z,12.20
2023-04-18T16:19:12.635Z,13.98
2023-04-18T16:21:38.980Z,12.27
2023-04-18T16:24:05.690Z,12.13
2023-04-18T16:26:32.127Z,13.85
2023-04-18T16:28:58.541Z,11.57
2023-04-18T16:31:25.038Z,11.23
2023-04-18T16:33:52.573Z,13.32
2023-04-18T16:36:19.121Z,12.68
2023-04-18T16:38:45.686Z,12.93
2023-04-18T16:41:12.022Z,13.57
2023-04-18T16:43:38.454Z,11.45
2023-04-18T16:46:05.537Z,11.95
2023-04-18T16:48:32.074Z,12.02
2023-04-18T16:50:58.477Z,12.35
2023-04-18T16:53:24.947Z,13.67
2023-04-18T16:55:53.026Z,13.07
2023-04-18T16:58:20.104Z,11.25
2023-04-18T17:00:47.699Z,11.48
2023-04-18T17:03:14.368Z,12.35
2023-04-18T17:05:40.940Z,10.30
2023-04-18T17:08:07.312Z,9.98
2023-04-18T17:10:34.340Z,10.77
2023-04-18T17:13:02.676Z,10.77
2023-04-18T17:15:29.045Z,10.73
2023-04-18T17:17:56.520Z,10.80
2023-04-18T17:20:23.589Z,11.27
2023-04-18T17:22:49.962Z,10.70
2023-04-18T17:25:16.670Z,9.82
2023-04-18T17:27:43.129Z,9.27
2023-04-18T17:30:09.939Z,9.83
2023-04-18T17:32:36.937Z,9.65
2023-04-18T17:35:06.135Z,9.85
2023-04-18T17:37:32.560Z,9.48
2023-04-18T17:40:00.296Z,9.45
2023-04-18T17:42:26.666Z,9.63
2023-04-18T17:44:53.042Z,9.50
2023-04-18T17:47:19.400Z,8.73
2023-04-18T17:49:46.015Z,10.93
2023-04-18T17:52:12.392Z,9.27
2023-04-18T17:54:38.778Z,9.47
2023-04-18T17:57:05.179Z,9.35
2023-04-18T17:59:37.431Z,9.32
2023-04-18T18:02:04.856Z,8.27
2023-04-18T18:04:31.669Z,8.52
2023-04-18T18:06:58.696Z,8.70
2023-04-18T18:09:25.082Z,8.38
2023-04-18T18:11:52.937Z,10.00
2023-04-18T18:14:20.444Z,8.43
2023-04-18T18:16:46.848Z,9.15
2023-04-18T18:19:14.855Z,10.00
2023-04-18T18:21:41.322Z,10.75
2023-04-18T18:24:07.881Z,8.57
2023-04-18T18:26:36.161Z,10.45
2023-04-18T18:29:09.142Z,9.93
2023-04-18T18:31:36.168Z,7.93
2023-04-18T18:34:02.942Z,8.85
2023-04-18T18:36:29.383Z,9.82
2023-04-18T18:38:55.754Z,8.55
2023-04-18T18:41:22.592Z,7.75
2023-04-18T18:43:49.845Z,8.83
2023-04-18T18:46:16.701Z,9.80
2023-04-18T18:48:43.391Z,8.13
2023-04-18T18:51:09.954Z,11.77
2023-04-18T18:53:37.770Z,9.70
2023-04-18T18:56:06.183Z,7.70
2023-04-18T18:58:32.539Z,8.82
2023-04-18T19:01:02.184Z,8.57
2023-04-18T19:03:29.055Z,8.15
2023-04-18T19:05:56.440Z,9.50
2023-04-18T19:08:22.793Z,7.50
2023-04-18T19:10:49.359Z,9.60
2023-04-18T19:13:15.755Z,7.90
2023-04-18T19:15:42.196Z,8.48
2023-04-18T19:18:08.635Z,9.60
2023-04-18T19:20:35.016Z,9.03
2023-04-18T19:23:01.372Z,9.63
2023-04-18T19:25:27.852Z,9.43
2023-04-18T19:27:54.194Z,8.60
2023-04-18T19:30:20.723Z,8.60
2023-04-18T19:32:47.114Z,9.70
2023-04-18T19:35:13.691Z,9.27
2023-04-18T19:37:40.111Z,10.25
2023-04-18T19:40:07.202Z,10.60
2023-04-18T19:42:33.648Z,9.13
2023-04-18T19:45:00.310Z,9.80
2023-04-18T19:47:27.866Z,9.95
2023-04-18T19:49:54.256Z,11.23
2023-04-18T19:52:20.606Z,11.48
2023-04-18T19:54:46.973Z,12.25
2023-04-18T19:57:13.329Z,10.30
2023-04-18T19:59:39.758Z,13.73
2023-04-18T20:02:06.742Z,12.82
2023-04-18T20:04:34.213Z,11.07
2023-04-18T20:07:02.327Z,10.20
2023-04-18T20:09:28.726Z,10.60
2023-04-18T20:11:55.096Z,11.80
2023-04-18T20:14:21.449Z,13.48
2023-04-18T20:16:49.626Z,12.20
2023-04-18T20:19:18.168Z,12.32
2023-04-18T20:21:44.781Z,12.40
2023-04-18T20:24:11.118Z,11.25
2023-04-18T20:26:37.531Z,13.68
2023-04-18T20:29:04.139Z,11.20
2023-04-18T20:31:30.549Z,10.77
2023-04-18T20:33:56.915Z,11.03
2023-04-18T20:36:24.324Z,12.50
2023-04-18T20:38:50.670Z,10.52
2023-04-18T20:41:18.310Z,10.88
2023-04-18T20:43:45.947Z,11.70
2023-04-18T20:46:13.077Z,12.07
2023-04-18T20:48:40.162Z,10.65
2023-04-18T20:51:06.778Z,10.15
2023-04-18T20:53:33.107Z,11.88
2023-04-18T20:56:01.747Z,11.55
2023-04-18T20:58:28.121Z,10.53
2023-04-18T21:00:54.495Z,10.80
2023-04-18T21:03:20.894Z,10.93
2023-04-18T21:05:47.293Z,9.30
2023-04-18T21:08:13.790Z,9.73
2023-04-18T21:10:40.232Z,9.50
2023-04-18T21:13:06.706Z,10.50
2023-04-18T21:15:34.872Z,10.02
2023-04-18T21:18:01.228Z,10.75
2023-04-18T21:20:27.625Z,10.10
2023-04-18T21:22:54.008Z,11.20
2023-04-18T21:25:21.281Z,10.30
2023-04-18T21:27:47.805Z,10.43
2023-04-18T21:30:14.230Z,9.30
2023-04-18T21:32:40.629Z,10.43
2023-04-18T21:35:07.238Z,10.10
2023-04-18T21:37:33.644Z,9.68
2023-04-18T21:40:00.946Z,10.60
2023-04-18T21:42:27.341Z,10.35
2023-04-18T21:44:54.825Z,11.07
2023-04-18T21:47:21.437Z,9.80
2023-04-18T21:49:49.008Z,10.30
2023-04-18T21:52:15.474Z,9.55
2023-04-18T21:54:41.891Z,8.10
2023-04-18T21:57:08.317Z,10.25
2023-04-18T21:59:34.663Z,10.97
2023-04-18T22:02:01.236Z,8.93
2023-04-18T22:04:27.792Z,8.35
2023-04-18T22:06:54.590Z,9.20
2023-04-18T22:09:21.697Z,8.55
2023-04-18T22:11:48.408Z,7.57
2023-04-18T22:14:15.015Z,9.18
2023-04-18T22:16:42.322Z,9.32
2023-04-18T22:19:09.049Z,11.20
2023-04-18T22:21:35.454Z,8.98
2023-04-18T22:24:01.817Z,8.57
2023-04-18T22:26:28.262Z,9.00
2023-04-18T22:28:54.627Z,8.38
2023-04-18T22:31:21.203Z,9.10
2023-04-18T22:33:47.642Z,8.48
2023-04-18T22:36:14.058Z,8.63
2023-04-18T22:38:40.398Z,8.52
2023-04-18T22:41:07.819Z,9.98
2023-04-18T22:43:34.219Z,9.07
2023-04-18T22:46:00.892Z,8.68
2023-04-18T22:48:27.397Z,8.53
2023-04-18T22:50:54.227Z,9.05
2023-04-18T22:53:20.574Z,8.40
2023-04-18T22:55:46.968Z,9.05
2023-04-18T22:58:13.612Z,7.93
2023-04-18T23:00:40.098Z,7.77
2023-04-18T23:03:06.676Z,8.90
2023-04-18T23:05:34.212Z,6.65
2023-04-18T23:08:00.794Z,6.93
2023-04-18T23:10:27.411Z,8.68
2023-04-18T23:12:53.919Z,6.73
2023-04-18T23:15:22.677Z,7.93
2023-04-18T23:17:51.789Z,8.23
2023-04-18T23:20:18.557Z,7.38
2023-04-18T23:22:45.088Z,7.55
2023-04-18T23:25:11.677Z,7.30
2023-04-18T23:27:38.099Z,8.05
2023-04-18T23:30:04.917Z,7.05
2023-04-18T23:32:31.323Z,7.25
2023-04-18T23:34:57.819Z,10.55
2023-04-18T23:37:24.182Z,8.73
2023-04-18T23:39:50.556Z,7.57
2023-04-18T23:42:16.963Z,8.70
2023-04-18T23:44:43.318Z,7.53
2023-04-18T23:47:09.726Z,7.38
2023-04-18T23:49:36.115Z,6.53
2023-04-18T23:52:02.470Z,6.78
2023-04-18T23:54:28.882Z,6.38
2023-04-18T23:56:55.253Z,6.78
2023-04-18T23:59:21.635Z,7.10
